sensor_id;sensor_type;location;lat;lon;timestamp;P1;durP1;ratioP1;P2;durP2;ratioP2
11763;SDS011;5939;56.522;14.950;2022-11-13T00:01:56;3.03;;;1.40;;
11763;SDS011;5939;56.522;14.950;2022-11-13T00:04:22;2.00;;;1.30;;
11763;SDS011;5939;56.522;14.950;2022-11-13T00:06:48;2.67;;;1.57;;
11763;SDS011;5939;56.522;14.950;2022-11-13T00:09:13;2.20;;;1.47;;
11763;SDS011;5939;56.522;14.950;2022-11-13T00:11:39;2.10;;;1.30;;
11763;SDS011;5939;56.522;14.950;2022-11-13T00:14:04;2.23;;;1.50;;
11763;SDS011;5939;56.522;14.950;2022-11-13T00:16:30;3.00;;;1.47;;
11763;SDS011;5939;56.522;14.950;2022-11-13T00:18:56;1.90;;;1.40;;
11763;SDS011;5939;56.522;14.950;2022-11-13T00:21:23;3.67;;;1.30;;
11763;SDS011;5939;56.522;14.950;2022-11-13T00:23:51;3.17;;;1.60;;
11763;SDS011;5939;56.522;14.950;2022-11-13T00:26:21;2.63;;;1.30;;
11763;SDS011;5939;56.522;14.950;2022-11-13T00:28:58;2.20;;;1.37;;
11763;SDS011;5939;56.522;14.950;2022-11-13T00:31:25;3.00;;;1.40;;
11763;SDS011;5939;56.522;14.950;2022-11-13T00:33:52;2.80;;;1.30;;
11763;SDS011;5939;56.522;14.950;2022-11-13T00:36:19;1.60;;;1.10;;
11763;SDS011;5939;56.522;14.950;2022-11-13T00:38:47;3.23;;;1.33;;
11763;SDS011;5939;56.522;14.950;2022-11-13T00:41:13;3.07;;;1.40;;
11763;SDS011;5939;56.522;14.950;2022-11-13T00:43:39;2.33;;;1.30;;
11763;SDS011;5939;56.522;14.950;2022-11-13T00:46:05;1.73;;;1.20;;
11763;SDS011;5939;56.522;14.950;2022-11-13T00:48:32;2.70;;;1.40;;
11763;SDS011;5939;56.522;14.950;2022-11-13T00:50:58;2.17;;;1.20;;
11763;SDS011;5939;56.522;14.950;2022-11-13T00:53:23;3.03;;;1.17;;
11763;SDS011;5939;56.522;14.950;2022-11-13T00:55:49;1.20;;;1.10;;
11763;SDS011;5939;56.522;14.950;2022-11-13T00:58:15;3.57;;;1.40;;
11763;SDS011;5939;56.522;14.950;2022-11-13T01:00:42;2.30;;;1.30;;
11763;SDS011;5939;56.522;14.950;2022-11-13T01:03:10;2.93;;;1.50;;
11763;SDS011;5939;56.522;14.950;2022-11-13T01:05:37;3.50;;;1.50;;
11763;SDS011;5939;56.522;14.950;2022-11-13T01:08:04;3.00;;;1.40;;
11763;SDS011;5939;56.522;14.950;2022-11-13T01:10:31;3.17;;;1.50;;
11763;SDS011;5939;56.522;14.950;2022-11-13T01:12:58;2.97;;;1.40;;
11763;SDS011;5939;56.522;14.950;2022-11-13T01:15:24;2.50;;;1.27;;
11763;SDS011;5939;56.522;14.950;2022-11-13T01:17:50;2.33;;;1.40;;
11763;SDS011;5939;56.522;14.950;2022-11-13T01:20:16;2.60;;;1.37;;
11763;SDS011;5939;56.522;14.950;2022-11-13T01:22:42;4.00;;;1.40;;
11763;SDS011;5939;56.522;14.950;2022-11-13T01:25:07;2.10;;;1.70;;
11763;SDS011;5939;56.522;14.950;2022-11-13T01:27:36;1.93;;;1.40;;
11763;SDS011;5939;56.522;14.950;2022-11-13T01:30:03;2.87;;;1.40;;
11763;SDS011;5939;56.522;14.950;2022-11-13T01:32:29;3.60;;;1.57;;
11763;SDS011;5939;56.522;14.950;2022-11-13T01:34:55;2.57;;;1.33;;
11763;SDS011;5939;56.522;14.950;2022-11-13T01:37:20;3.07;;;1.60;;
11763;SDS011;5939;56.522;14.950;2022-11-13T01:39:46;1.93;;;1.27;;
11763;SDS011;5939;56.522;14.950;2022-11-13T01:42:12;2.90;;;1.20;;
11763;SDS011;5939;56.522;14.950;2022-11-13T01:44:45;1.97;;;1.50;;
11763;SDS011;5939;56.522;14.950;2022-11-13T01:47:11;2.17;;;1.30;;
11763;SDS011;5939;56.522;14.950;2022-11-13T01:49:37;2.10;;;1.30;;
11763;SDS011;5939;56.522;14.950;2022-11-13T01:52:07;3.70;;;1.30;;
11763;SDS011;5939;56.522;14.950;2022-11-13T01:54:36;1.67;;;1.40;;
11763;SDS011;5939;56.522;14.950;2022-11-13T01:57:06;2.27;;;1.50;;
11763;SDS011;5939;56.522;14.950;2022-11-13T01:59:39;2.33;;;1.47;;
11763;SDS011;5939;56.522;14.950;2022-11-13T02:02:08;3.87;;;1.30;;
11763;SDS011;5939;56.522;14.950;2022-11-13T02:04:33;3.03;;;1.60;;
11763;SDS011;5939;56.522;14.950;2022-11-13T02:07:06;1.90;;;1.40;;
11763;SDS011;5939;56.522;14.950;2022-11-13T02:09:35;2.13;;;1.37;;
11763;SDS011;5939;56.522;14.950;2022-11-13T02:12:05;2.83;;;1.40;;
11763;SDS011;5939;56.522;14.950;2022-11-13T02:14:32;1.83;;;1.47;;
11763;SDS011;5939;56.522;14.950;2022-11-13T02:17:01;2.67;;;1.43;;
11763;SDS011;5939;56.522;14.950;2022-11-13T02:19:37;4.17;;;1.80;;
11763;SDS011;5939;56.522;14.950;2022-11-13T02:24:53;2.20;;;1.40;;
11763;SDS011;5939;56.522;14.950;2022-11-13T02:27:28;1.43;;;1.30;;
11763;SDS011;5939;56.522;14.950;2022-11-13T02:30:36;2.60;;;1.27;;
11763;SDS011;5939;56.522;14.950;2022-11-13T02:32:57;2.43;;;1.40;;
11763;SDS011;5939;56.522;14.950;2022-11-13T02:35:24;1.93;;;1.37;;
11763;SDS011;5939;56.522;14.950;2022-11-13T02:37:54;3.20;;;1.43;;
11763;SDS011;5939;56.522;14.950;2022-11-13T02:40:21;4.63;;;1.50;;
11763;SDS011;5939;56.522;14.950;2022-11-13T02:42:47;1.77;;;1.30;;
11763;SDS011;5939;56.522;14.950;2022-11-13T02:45:13;3.07;;;1.60;;
11763;SDS011;5939;56.522;14.950;2022-11-13T02:47:38;2.77;;;1.40;;
11763;SDS011;5939;56.522;14.950;2022-11-13T02:50:04;2.73;;;1.90;;
11763;SDS011;5939;56.522;14.950;2022-11-13T02:52:31;2.70;;;1.30;;
11763;SDS011;5939;56.522;14.950;2022-11-13T02:54:56;4.20;;;1.47;;
11763;SDS011;5939;56.522;14.950;2022-11-13T02:57:22;2.90;;;1.43;;
11763;SDS011;5939;56.522;14.950;2022-11-13T02:59:48;3.63;;;1.53;;
11763;SDS011;5939;56.522;14.950;2022-11-13T03:02:14;3.03;;;1.40;;
11763;SDS011;5939;56.522;14.950;2022-11-13T03:04:39;2.10;;;1.50;;
11763;SDS011;5939;56.522;14.950;2022-11-13T03:07:05;1.60;;;1.33;;
11763;SDS011;5939;56.522;14.950;2022-11-13T03:09:31;2.10;;;1.33;;
11763;SDS011;5939;56.522;14.950;2022-11-13T03:11:56;4.07;;;1.60;;
11763;SDS011;5939;56.522;14.950;2022-11-13T03:14:22;1.80;;;1.67;;
11763;SDS011;5939;56.522;14.950;2022-11-13T03:16:47;2.13;;;1.40;;
11763;SDS011;5939;56.522;14.950;2022-11-13T03:19:13;3.80;;;1.80;;
11763;SDS011;5939;56.522;14.950;2022-11-13T03:21:39;2.23;;;1.30;;
11763;SDS011;5939;56.522;14.950;2022-11-13T03:24:04;3.80;;;1.30;;
11763;SDS011;5939;56.522;14.950;2022-11-13T03:26:30;2.60;;;1.40;;
11763;SDS011;5939;56.522;14.950;2022-11-13T03:28:56;2.27;;;1.47;;
11763;SDS011;5939;56.522;14.950;2022-11-13T03:31:22;2.53;;;1.50;;
11763;SDS011;5939;56.522;14.950;2022-11-13T03:33:47;4.00;;;1.50;;
11763;SDS011;5939;56.522;14.950;2022-11-13T03:36:15;2.43;;;1.60;;
11763;SDS011;5939;56.522;14.950;2022-11-13T03:38:41;2.70;;;1.50;;
11763;SDS011;5939;56.522;14.950;2022-11-13T03:41:07;4.10;;;1.53;;
11763;SDS011;5939;56.522;14.950;2022-11-13T03:43:32;3.80;;;1.50;;
11763;SDS011;5939;56.522;14.950;2022-11-13T03:45:58;4.37;;;1.43;;
11763;SDS011;5939;56.522;14.950;2022-11-13T03:48:23;2.43;;;1.50;;
11763;SDS011;5939;56.522;14.950;2022-11-13T03:50:52;3.70;;;1.70;;
11763;SDS011;5939;56.522;14.950;2022-11-13T03:53:18;3.00;;;1.53;;
11763;SDS011;5939;56.522;14.950;2022-11-13T03:55:44;3.70;;;1.50;;
11763;SDS011;5939;56.522;14.950;2022-11-13T03:58:11;2.97;;;1.20;;
11763;SDS011;5939;56.522;14.950;2022-11-13T04:00:38;2.47;;;1.60;;
11763;SDS011;5939;56.522;14.950;2022-11-13T04:03:04;4.53;;;1.60;;
11763;SDS011;5939;56.522;14.950;2022-11-13T04:05:30;1.93;;;1.53;;
11763;SDS011;5939;56.522;14.950;2022-11-13T04:07:55;2.07;;;1.20;;
11763;SDS011;5939;56.522;14.950;2022-11-13T04:10:21;2.70;;;1.60;;
11763;SDS011;5939;56.522;14.950;2022-11-13T04:12:47;2.30;;;1.70;;
11763;SDS011;5939;56.522;14.950;2022-11-13T04:15:12;2.93;;;1.70;;
11763;SDS011;5939;56.522;14.950;2022-11-13T04:17:38;3.17;;;1.63;;
11763;SDS011;5939;56.522;14.950;2022-11-13T04:20:04;2.27;;;1.60;;
11763;SDS011;5939;56.522;14.950;2022-11-13T04:22:30;3.43;;;1.50;;
11763;SDS011;5939;56.522;14.950;2022-11-13T04:24:56;2.47;;;1.63;;
11763;SDS011;5939;56.522;14.950;2022-11-13T04:27:21;3.00;;;1.50;;
11763;SDS011;5939;56.522;14.950;2022-11-13T04:29:47;3.40;;;1.47;;
11763;SDS011;5939;56.522;14.950;2022-11-13T04:32:12;2.90;;;1.47;;
11763;SDS011;5939;56.522;14.950;2022-11-13T04:34:38;2.40;;;1.90;;
11763;SDS011;5939;56.522;14.950;2022-11-13T04:37:04;1.80;;;1.50;;
11763;SDS011;5939;56.522;14.950;2022-11-13T04:39:29;1.77;;;1.50;;
11763;SDS011;5939;56.522;14.950;2022-11-13T04:41:55;3.13;;;1.87;;
11763;SDS011;5939;56.522;14.950;2022-11-13T04:44:39;3.60;;;1.60;;
11763;SDS011;5939;56.522;14.950;2022-11-13T04:47:04;2.90;;;1.50;;
11763;SDS011;5939;56.522;14.950;2022-11-13T04:49:30;2.00;;;1.40;;
11763;SDS011;5939;56.522;14.950;2022-11-13T04:51:56;3.27;;;1.53;;
11763;SDS011;5939;56.522;14.950;2022-11-13T04:54:21;3.50;;;1.70;;
11763;SDS011;5939;56.522;14.950;2022-11-13T04:56:47;2.37;;;1.60;;
11763;SDS011;5939;56.522;14.950;2022-11-13T04:59:13;3.37;;;1.70;;
11763;SDS011;5939;56.522;14.950;2022-11-13T05:01:38;2.77;;;1.60;;
11763;SDS011;5939;56.522;14.950;2022-11-13T05:04:04;2.03;;;1.50;;
11763;SDS011;5939;56.522;14.950;2022-11-13T05:06:30;2.27;;;1.37;;
11763;SDS011;5939;56.522;14.950;2022-11-13T05:08:56;2.43;;;1.60;;
11763;SDS011;5939;56.522;14.950;2022-11-13T05:11:22;4.83;;;1.80;;
11763;SDS011;5939;56.522;14.950;2022-11-13T05:13:47;3.20;;;1.70;;
11763;SDS011;5939;56.522;14.950;2022-11-13T05:16:13;2.80;;;1.40;;
11763;SDS011;5939;56.522;14.950;2022-11-13T05:18:39;2.97;;;1.70;;
11763;SDS011;5939;56.522;14.950;2022-11-13T05:21:06;3.40;;;1.80;;
11763;SDS011;5939;56.522;14.950;2022-11-13T05:23:33;3.83;;;1.97;;
11763;SDS011;5939;56.522;14.950;2022-11-13T05:26:00;2.70;;;1.57;;
11763;SDS011;5939;56.522;14.950;2022-11-13T05:28:27;3.20;;;1.70;;
11763;SDS011;5939;56.522;14.950;2022-11-13T05:30:53;3.07;;;1.70;;
11763;SDS011;5939;56.522;14.950;2022-11-13T05:33:27;4.30;;;1.80;;
11763;SDS011;5939;56.522;14.950;2022-11-13T05:35:53;2.83;;;1.70;;
11763;SDS011;5939;56.522;14.950;2022-11-13T05:38:18;2.00;;;1.33;;
11763;SDS011;5939;56.522;14.950;2022-11-13T05:40:44;2.97;;;1.60;;
11763;SDS011;5939;56.522;14.950;2022-11-13T05:43:09;2.77;;;1.60;;
11763;SDS011;5939;56.522;14.950;2022-11-13T05:45:35;2.80;;;1.50;;
11763;SDS011;5939;56.522;14.950;2022-11-13T05:48:00;1.70;;;1.60;;
11763;SDS011;5939;56.522;14.950;2022-11-13T05:50:26;3.83;;;1.73;;
11763;SDS011;5939;56.522;14.950;2022-11-13T05:52:52;2.87;;;1.70;;
11763;SDS011;5939;56.522;14.950;2022-11-13T05:55:17;3.17;;;1.80;;
11763;SDS011;5939;56.522;14.950;2022-11-13T05:57:43;3.00;;;1.60;;
11763;SDS011;5939;56.522;14.950;2022-11-13T06:00:09;2.77;;;1.70;;
11763;SDS011;5939;56.522;14.950;2022-11-13T06:02:35;2.20;;;1.57;;
11763;SDS011;5939;56.522;14.950;2022-11-13T06:05:01;2.77;;;1.70;;
11763;SDS011;5939;56.522;14.950;2022-11-13T06:07:26;2.60;;;1.70;;
11763;SDS011;5939;56.522;14.950;2022-11-13T06:09:52;3.00;;;1.87;;
11763;SDS011;5939;56.522;14.950;2022-11-13T06:12:17;3.03;;;2.00;;
11763;SDS011;5939;56.522;14.950;2022-11-13T06:14:43;3.00;;;1.83;;
11763;SDS011;5939;56.522;14.950;2022-11-13T06:17:08;2.70;;;1.87;;
11763;SDS011;5939;56.522;14.950;2022-11-13T06:19:34;3.13;;;1.83;;
11763;SDS011;5939;56.522;14.950;2022-11-13T06:22:00;2.67;;;1.53;;
11763;SDS011;5939;56.522;14.950;2022-11-13T06:24:25;1.70;;;1.50;;
11763;SDS011;5939;56.522;14.950;2022-11-13T06:26:51;2.83;;;1.60;;
11763;SDS011;5939;56.522;14.950;2022-11-13T06:29:17;3.67;;;1.60;;
11763;SDS011;5939;56.522;14.950;2022-11-13T06:31:43;2.40;;;1.83;;
11763;SDS011;5939;56.522;14.950;2022-11-13T06:34:08;2.10;;;1.50;;
11763;SDS011;5939;56.522;14.950;2022-11-13T06:36:35;2.90;;;1.70;;
11763;SDS011;5939;56.522;14.950;2022-11-13T06:39:04;2.63;;;1.50;;
11763;SDS011;5939;56.522;14.950;2022-11-13T06:41:30;4.77;;;1.60;;
11763;SDS011;5939;56.522;14.950;2022-11-13T06:43:57;2.63;;;1.63;;
11763;SDS011;5939;56.522;14.950;2022-11-13T06:46:24;3.10;;;1.77;;
11763;SDS011;5939;56.522;14.950;2022-11-13T06:48:51;3.40;;;1.60;;
11763;SDS011;5939;56.522;14.950;2022-11-13T06:51:21;2.73;;;1.80;;
11763;SDS011;5939;56.522;14.950;2022-11-13T06:53:48;2.57;;;1.60;;
11763;SDS011;5939;56.522;14.950;2022-11-13T06:56:14;3.07;;;1.53;;
11763;SDS011;5939;56.522;14.950;2022-11-13T06:58:40;2.00;;;1.60;;
11763;SDS011;5939;56.522;14.950;2022-11-13T07:01:11;1.83;;;1.40;;
11763;SDS011;5939;56.522;14.950;2022-11-13T07:03:39;2.13;;;1.60;;
11763;SDS011;5939;56.522;14.950;2022-11-13T07:06:06;2.97;;;1.63;;
11763;SDS011;5939;56.522;14.950;2022-11-13T07:08:33;3.80;;;1.60;;
11763;SDS011;5939;56.522;14.950;2022-11-13T07:10:59;2.30;;;1.70;;
11763;SDS011;5939;56.522;14.950;2022-11-13T07:13:26;1.80;;;1.50;;
11763;SDS011;5939;56.522;14.950;2022-11-13T07:15:52;1.97;;;1.40;;
11763;SDS011;5939;56.522;14.950;2022-11-13T07:18:18;1.57;;;1.37;;
11763;SDS011;5939;56.522;14.950;2022-11-13T07:20:43;2.63;;;1.73;;
11763;SDS011;5939;56.522;14.950;2022-11-13T07:23:09;2.17;;;1.53;;
11763;SDS011;5939;56.522;14.950;2022-11-13T07:25:35;2.83;;;1.60;;
11763;SDS011;5939;56.522;14.950;2022-11-13T07:28:01;1.97;;;1.73;;
11763;SDS011;5939;56.522;14.950;2022-11-13T07:30:27;2.10;;;1.47;;
11763;SDS011;5939;56.522;14.950;2022-11-13T07:32:52;4.47;;;1.73;;
11763;SDS011;5939;56.522;14.950;2022-11-13T07:35:18;2.03;;;1.50;;
11763;SDS011;5939;56.522;14.950;2022-11-13T07:37:44;2.23;;;1.80;;
11763;SDS011;5939;56.522;14.950;2022-11-13T07:40:10;2.97;;;1.67;;
11763;SDS011;5939;56.522;14.950;2022-11-13T07:42:36;2.87;;;1.63;;
11763;SDS011;5939;56.522;14.950;2022-11-13T07:45:03;3.23;;;1.87;;
11763;SDS011;5939;56.522;14.950;2022-11-13T07:47:29;3.40;;;2.10;;
11763;SDS011;5939;56.522;14.950;2022-11-13T07:49:55;3.00;;;2.10;;
11763;SDS011;5939;56.522;14.950;2022-11-13T07:52:20;3.30;;;2.30;;
11763;SDS011;5939;56.522;14.950;2022-11-13T07:54:46;3.43;;;1.73;;
11763;SDS011;5939;56.522;14.950;2022-11-13T07:57:12;3.67;;;2.00;;
11763;SDS011;5939;56.522;14.950;2022-11-13T07:59:38;2.67;;;2.00;;
11763;SDS011;5939;56.522;14.950;2022-11-13T08:02:04;2.40;;;1.97;;
11763;SDS011;5939;56.522;14.950;2022-11-13T08:04:29;4.33;;;2.30;;
11763;SDS011;5939;56.522;14.950;2022-11-13T08:06:55;2.70;;;2.10;;
11763;SDS011;5939;56.522;14.950;2022-11-13T08:09:20;3.57;;;1.80;;
11763;SDS011;5939;56.522;14.950;2022-11-13T08:11:46;2.23;;;1.80;;
11763;SDS011;5939;56.522;14.950;2022-11-13T08:14:12;2.67;;;2.10;;
11763;SDS011;5939;56.522;14.950;2022-11-13T08:16:38;3.33;;;1.87;;
11763;SDS011;5939;56.522;14.950;2022-11-13T08:19:03;1.97;;;1.77;;
11763;SDS011;5939;56.522;14.950;2022-11-13T08:21:29;2.10;;;1.57;;
11763;SDS011;5939;56.522;14.950;2022-11-13T08:23:54;2.43;;;1.70;;
11763;SDS011;5939;56.522;14.950;2022-11-13T08:26:20;2.40;;;1.70;;
11763;SDS011;5939;56.522;14.950;2022-11-13T08:28:46;2.53;;;1.90;;
11763;SDS011;5939;56.522;14.950;2022-11-13T08:31:13;2.40;;;1.77;;
11763;SDS011;5939;56.522;14.950;2022-11-13T08:33:40;2.83;;;2.00;;
11763;SDS011;5939;56.522;14.950;2022-11-13T08:36:07;2.40;;;1.80;;
11763;SDS011;5939;56.522;14.950;2022-11-13T08:38:33;2.07;;;1.57;;
11763;SDS011;5939;56.522;14.950;2022-11-13T08:41:01;3.23;;;1.83;;
11763;SDS011;5939;56.522;14.950;2022-11-13T08:43:28;2.23;;;1.70;;
11763;SDS011;5939;56.522;14.950;2022-11-13T08:45:54;2.07;;;1.70;;
11763;SDS011;5939;56.522;14.950;2022-11-13T08:48:20;2.47;;;1.57;;
11763;SDS011;5939;56.522;14.950;2022-11-13T08:50:53;1.83;;;1.70;;
11763;SDS011;5939;56.522;14.950;2022-11-13T08:53:20;3.03;;;1.60;;
11763;SDS011;5939;56.522;14.950;2022-11-13T08:55:46;2.90;;;1.70;;
11763;SDS011;5939;56.522;14.950;2022-11-13T08:58:12;5.00;;;1.80;;
11763;SDS011;5939;56.522;14.950;2022-11-13T09:00:38;2.47;;;1.80;;
11763;SDS011;5939;56.522;14.950;2022-11-13T09:03:03;4.67;;;1.90;;
11763;SDS011;5939;56.522;14.950;2022-11-13T09:05:29;3.10;;;2.03;;
11763;SDS011;5939;56.522;14.950;2022-11-13T09:07:59;2.90;;;2.10;;
11763;SDS011;5939;56.522;14.950;2022-11-13T09:10:25;4.03;;;1.70;;
11763;SDS011;5939;56.522;14.950;2022-11-13T09:12:58;2.47;;;1.97;;
11763;SDS011;5939;56.522;14.950;2022-11-13T09:15:26;4.00;;;1.90;;
11763;SDS011;5939;56.522;14.950;2022-11-13T09:17:59;1.60;;;1.37;;
11763;SDS011;5939;56.522;14.950;2022-11-13T09:20:26;2.03;;;1.60;;
11763;SDS011;5939;56.522;14.950;2022-11-13T09:22:59;2.13;;;1.83;;
11763;SDS011;5939;56.522;14.950;2022-11-13T09:25:30;1.63;;;1.50;;
11763;SDS011;5939;56.522;14.950;2022-11-13T09:27:58;2.67;;;1.53;;
11763;SDS011;5939;56.522;14.950;2022-11-13T09:30:25;2.43;;;1.63;;
11763;SDS011;5939;56.522;14.950;2022-11-13T09:32:56;2.67;;;1.80;;
11763;SDS011;5939;56.522;14.950;2022-11-13T09:35:23;2.83;;;1.80;;
11763;SDS011;5939;56.522;14.950;2022-11-13T09:38:03;1.77;;;1.63;;
11763;SDS011;5939;56.522;14.950;2022-11-13T09:40:32;2.10;;;1.60;;
11763;SDS011;5939;56.522;14.950;2022-11-13T09:43:00;2.83;;;1.50;;
11763;SDS011;5939;56.522;14.950;2022-11-13T09:45:28;2.47;;;1.60;;
11763;SDS011;5939;56.522;14.950;2022-11-13T09:47:56;1.97;;;1.77;;
11763;SDS011;5939;56.522;14.950;2022-11-13T09:50:31;3.80;;;1.67;;
11763;SDS011;5939;56.522;14.950;2022-11-13T09:52:57;2.37;;;1.90;;
11763;SDS011;5939;56.522;14.950;2022-11-13T09:55:33;2.23;;;1.70;;
11763;SDS011;5939;56.522;14.950;2022-11-13T09:58:20;2.33;;;2.00;;
11763;SDS011;5939;56.522;14.950;2022-11-13T10:00:52;2.13;;;1.60;;
11763;SDS011;5939;56.522;14.950;2022-11-13T10:06:41;2.53;;;1.47;;
11763;SDS011;5939;56.522;14.950;2022-11-13T10:08:56;2.37;;;1.70;;
11763;SDS011;5939;56.522;14.950;2022-11-13T10:13:57;4.30;;;2.00;;
11763;SDS011;5939;56.522;14.950;2022-11-13T10:18:59;4.13;;;1.60;;
11763;SDS011;5939;56.522;14.950;2022-11-13T10:21:47;2.93;;;1.50;;
11763;SDS011;5939;56.522;14.950;2022-11-13T10:24:17;1.67;;;1.57;;
11763;SDS011;5939;56.522;14.950;2022-11-13T10:26:49;4.10;;;1.90;;
11763;SDS011;5939;56.522;14.950;2022-11-13T10:29:16;2.10;;;1.70;;
11763;SDS011;5939;56.522;14.950;2022-11-13T10:31:44;2.73;;;1.87;;
11763;SDS011;5939;56.522;14.950;2022-11-13T10:34:12;3.03;;;1.60;;
11763;SDS011;5939;56.522;14.950;2022-11-13T10:36:41;1.73;;;1.53;;
11763;SDS011;5939;56.522;14.950;2022-11-13T10:39:20;1.90;;;1.70;;
11763;SDS011;5939;56.522;14.950;2022-11-13T10:41:50;2.43;;;1.60;;
11763;SDS011;5939;56.522;14.950;2022-11-13T10:47:03;1.50;;;1.40;;
11763;SDS011;5939;56.522;14.950;2022-11-13T10:49:39;3.17;;;1.60;;
11763;SDS011;5939;56.522;14.950;2022-11-13T10:52:11;2.03;;;1.60;;
11763;SDS011;5939;56.522;14.950;2022-11-13T10:54:43;1.50;;;1.40;;
11763;SDS011;5939;56.522;14.950;2022-11-13T10:57:29;2.03;;;1.63;;
11763;SDS011;5939;56.522;14.950;2022-11-13T11:00:00;2.27;;;1.43;;
11763;SDS011;5939;56.522;14.950;2022-11-13T11:02:26;3.03;;;1.80;;
11763;SDS011;5939;56.522;14.950;2022-11-13T11:05:05;1.50;;;1.40;;
11763;SDS011;5939;56.522;14.950;2022-11-13T11:07:42;2.30;;;1.40;;
11763;SDS011;5939;56.522;14.950;2022-11-13T11:13:21;3.43;;;1.63;;
11763;SDS011;5939;56.522;14.950;2022-11-13T11:15:54;1.90;;;1.50;;
11763;SDS011;5939;56.522;14.950;2022-11-13T11:18:40;3.13;;;1.70;;
11763;SDS011;5939;56.522;14.950;2022-11-13T11:21:19;1.73;;;1.50;;
11763;SDS011;5939;56.522;14.950;2022-11-13T11:26:55;1.60;;;1.33;;
11763;SDS011;5939;56.522;14.950;2022-11-13T11:29:49;2.23;;;1.60;;
11763;SDS011;5939;56.522;14.950;2022-11-13T11:32:40;2.37;;;1.60;;
11763;SDS011;5939;56.522;14.950;2022-11-13T11:35:17;2.07;;;1.63;;
11763;SDS011;5939;56.522;14.950;2022-11-13T11:43:43;1.80;;;1.47;;
11763;SDS011;5939;56.522;14.950;2022-11-13T11:46:11;1.57;;;1.30;;
11763;SDS011;5939;56.522;14.950;2022-11-13T11:48:38;1.67;;;1.53;;
11763;SDS011;5939;56.522;14.950;2022-11-13T12:12:20;2.00;;;1.30;;
11763;SDS011;5939;56.522;14.950;2022-11-13T12:17:44;2.47;;;1.40;;
11763;SDS011;5939;56.522;14.950;2022-11-13T12:22:52;2.70;;;1.40;;
11763;SDS011;5939;56.522;14.950;2022-11-13T12:30:54;2.30;;;1.30;;
11763;SDS011;5939;56.522;14.950;2022-11-13T12:36:09;1.90;;;1.30;;
11763;SDS011;5939;56.522;14.950;2022-11-13T12:38:50;2.77;;;1.47;;
11763;SDS011;5939;56.522;14.950;2022-11-13T12:41:22;2.23;;;1.40;;
11763;SDS011;5939;56.522;14.950;2022-11-13T12:46:32;2.00;;;1.30;;
11763;SDS011;5939;56.522;14.950;2022-11-13T12:49:13;2.37;;;1.40;;
11763;SDS011;5939;56.522;14.950;2022-11-13T12:54:42;1.50;;;1.40;;
11763;SDS011;5939;56.522;14.950;2022-11-13T12:59:45;2.40;;;1.43;;
11763;SDS011;5939;56.522;14.950;2022-11-13T13:05:12;1.53;;;1.43;;
11763;SDS011;5939;56.522;14.950;2022-11-13T13:08:08;1.93;;;1.50;;
11763;SDS011;5939;56.522;14.950;2022-11-13T13:19:38;2.37;;;1.33;;
11763;SDS011;5939;56.522;14.950;2022-11-13T13:22:08;2.30;;;1.50;;
11763;SDS011;5939;56.522;14.950;2022-11-13T13:24:36;1.93;;;1.20;;
11763;SDS011;5939;56.522;14.950;2022-11-13T13:27:22;1.93;;;1.23;;
11763;SDS011;5939;56.522;14.950;2022-11-13T13:29:49;1.33;;;1.23;;
11763;SDS011;5939;56.522;14.950;2022-11-13T13:32:22;2.60;;;1.47;;
11763;SDS011;5939;56.522;14.950;2022-11-13T13:40:17;3.30;;;1.73;;
11763;SDS011;5939;56.522;14.950;2022-11-13T13:42:55;1.87;;;1.33;;
11763;SDS011;5939;56.522;14.950;2022-11-13T13:45:39;1.40;;;1.30;;
11763;SDS011;5939;56.522;14.950;2022-11-13T13:48:12;2.47;;;1.50;;
11763;SDS011;5939;56.522;14.950;2022-11-13T13:50:43;2.47;;;1.57;;
11763;SDS011;5939;56.522;14.950;2022-11-13T13:53:11;1.97;;;1.57;;
11763;SDS011;5939;56.522;14.950;2022-11-13T13:55:44;2.40;;;1.80;;
11763;SDS011;5939;56.522;14.950;2022-11-13T13:58:14;2.73;;;1.80;;
11763;SDS011;5939;56.522;14.950;2022-11-13T14:00:42;1.80;;;1.60;;
11763;SDS011;5939;56.522;14.950;2022-11-13T14:03:15;1.63;;;1.47;;
11763;SDS011;5939;56.522;14.950;2022-11-13T14:05:44;1.73;;;1.60;;
11763;SDS011;5939;56.522;14.950;2022-11-13T14:08:16;2.47;;;1.50;;
11763;SDS011;5939;56.522;14.950;2022-11-13T14:10:43;1.83;;;1.33;;
11763;SDS011;5939;56.522;14.950;2022-11-13T14:13:12;1.93;;;1.47;;
11763;SDS011;5939;56.522;14.950;2022-11-13T14:15:46;2.43;;;1.30;;
11763;SDS011;5939;56.522;14.950;2022-11-13T14:18:15;1.63;;;1.47;;
11763;SDS011;5939;56.522;14.950;2022-11-13T14:23:24;4.47;;;1.63;;
11763;SDS011;5939;56.522;14.950;2022-11-13T14:25:56;2.13;;;1.47;;
11763;SDS011;5939;56.522;14.950;2022-11-13T14:28:26;2.87;;;1.60;;
11763;SDS011;5939;56.522;14.950;2022-11-13T14:30:55;2.10;;;1.20;;
11763;SDS011;5939;56.522;14.950;2022-11-13T14:36:27;1.67;;;1.20;;
11763;SDS011;5939;56.522;14.950;2022-11-13T14:38:56;1.40;;;1.30;;
11763;SDS011;5939;56.522;14.950;2022-11-13T14:43:51;2.20;;;1.40;;
11763;SDS011;5939;56.522;14.950;2022-11-13T14:46:33;1.43;;;1.33;;
11763;SDS011;5939;56.522;14.950;2022-11-13T14:49:02;1.80;;;1.50;;
11763;SDS011;5939;56.522;14.950;2022-11-13T14:51:36;1.57;;;1.30;;
11763;SDS011;5939;56.522;14.950;2022-11-13T14:54:03;1.63;;;1.10;;
11763;SDS011;5939;56.522;14.950;2022-11-13T14:56:47;1.63;;;1.30;;
11763;SDS011;5939;56.522;14.950;2022-11-13T14:59:14;1.60;;;1.50;;
11763;SDS011;5939;56.522;14.950;2022-11-13T15:01:52;1.50;;;1.30;;
11763;SDS011;5939;56.522;14.950;2022-11-13T15:04:19;1.50;;;1.40;;
11763;SDS011;5939;56.522;14.950;2022-11-13T15:06:44;1.47;;;1.00;;
11763;SDS011;5939;56.522;14.950;2022-11-13T15:09:13;2.50;;;1.33;;
11763;SDS011;5939;56.522;14.950;2022-11-13T15:11:40;1.60;;;1.20;;
11763;SDS011;5939;56.522;14.950;2022-11-13T15:14:13;1.70;;;1.30;;
11763;SDS011;5939;56.522;14.950;2022-11-13T15:16:40;1.40;;;1.27;;
11763;SDS011;5939;56.522;14.950;2022-11-13T15:19:12;1.40;;;1.30;;
11763;SDS011;5939;56.522;14.950;2022-11-13T15:21:44;1.60;;;1.30;;
11763;SDS011;5939;56.522;14.950;2022-11-13T15:24:11;1.70;;;1.30;;
11763;SDS011;5939;56.522;14.950;2022-11-13T15:26:37;2.20;;;1.37;;
11763;SDS011;5939;56.522;14.950;2022-11-13T15:29:03;2.03;;;1.50;;
11763;SDS011;5939;56.522;14.950;2022-11-13T15:31:30;1.40;;;1.30;;
11763;SDS011;5939;56.522;14.950;2022-11-13T15:33:58;2.43;;;1.50;;
11763;SDS011;5939;56.522;14.950;2022-11-13T15:36:23;1.40;;;1.30;;
11763;SDS011;5939;56.522;14.950;2022-11-13T15:38:49;2.00;;;1.43;;
11763;SDS011;5939;56.522;14.950;2022-11-13T15:41:16;1.50;;;1.40;;
11763;SDS011;5939;56.522;14.950;2022-11-13T15:43:47;1.70;;;1.47;;
11763;SDS011;5939;56.522;14.950;2022-11-13T15:46:16;2.43;;;1.60;;
11763;SDS011;5939;56.522;14.950;2022-11-13T15:48:43;1.87;;;1.50;;
11763;SDS011;5939;56.522;14.950;2022-11-13T15:51:32;1.50;;;1.40;;
11763;SDS011;5939;56.522;14.950;2022-11-13T15:56:49;1.87;;;1.70;;
11763;SDS011;5939;56.522;14.950;2022-11-13T15:59:14;2.17;;;1.53;;
11763;SDS011;5939;56.522;14.950;2022-11-13T16:01:41;2.30;;;1.60;;
11763;SDS011;5939;56.522;14.950;2022-11-13T16:04:07;2.40;;;1.60;;
11763;SDS011;5939;56.522;14.950;2022-11-13T16:06:33;2.73;;;1.70;;
11763;SDS011;5939;56.522;14.950;2022-11-13T16:09:00;1.77;;;1.50;;
11763;SDS011;5939;56.522;14.950;2022-11-13T16:11:31;2.83;;;1.60;;
11763;SDS011;5939;56.522;14.950;2022-11-13T16:13:57;2.10;;;1.60;;
11763;SDS011;5939;56.522;14.950;2022-11-13T16:16:24;3.73;;;2.20;;
11763;SDS011;5939;56.522;14.950;2022-11-13T16:19:22;2.37;;;1.97;;
11763;SDS011;5939;56.522;14.950;2022-11-13T16:21:49;4.33;;;2.50;;
11763;SDS011;5939;56.522;14.950;2022-11-13T16:24:15;8.17;;;2.50;;
11763;SDS011;5939;56.522;14.950;2022-11-13T16:26:43;4.17;;;2.30;;
11763;SDS011;5939;56.522;14.950;2022-11-13T16:29:17;5.67;;;2.67;;
11763;SDS011;5939;56.522;14.950;2022-11-13T16:31:45;3.47;;;2.43;;
11763;SDS011;5939;56.522;14.950;2022-11-13T16:34:11;3.77;;;2.60;;